Time,TemperatureF,DewpointF,PressureIn,WindDirection,WindDirectionDegrees,WindSpeedMPH,WindSpeedGustMPH,Humidity,HourlyPrecipIn,Conditions,Clouds,dailyrainin,SoftwareType,DateUTC
2013-02-15 00:04:00,37.6,27.2,29.29,WSW,242,5.0,5.0,66,0.00,RA,,0.00,WeatherDisplay:10.37,2013-02-15 06:04:00,
2013-02-15 00:09:00,37.6,27.2,29.29,WSW,250,5.0,5.0,66,0.00,RA,,0.00,WeatherDisplay:10.37,2013-02-15 06:09:00,
2013-02-15 00:14:00,37.6,27.2,29.29,West,265,5.0,5.0,66,0.00,OVC,,0.00,WeatherDisplay:10.37,2013-02-15 06:14:00,
2013-02-15 00:19:00,37.6,27.2,29.29,West,267,3.0,5.0,66,0.00,OVC,,0.00,WeatherDisplay:10.37,2013-02-15 06:19:00,
2013-02-15 00:24:00,37.6,27.2,29.29,West,265,3.0,4.0,66,0.00,OVC,,0.00,WeatherDisplay:10.37,2013-02-15 06:24:00,
2013-02-15 00:29:00,37.6,27.2,29.32,West,268,3.0,4.0,66,0.00,OVC,,0.00,WeatherDisplay:10.37,2013-02-15 06:29:00,
2013-02-15 00:34:00,37.6,27.2,29.32,West,270,2.0,3.0,66,0.00,OVC,,0.00,WeatherDisplay:10.37,2013-02-15 06:34:00,
2013-02-15 00:39:00,37.6,27.2,29.32,West,269,2.0,3.0,66,0.00,OVC,,0.00,WeatherDisplay:10.37,2013-02-15 06:39:00,
2013-02-15 00:44:00,37.6,27.2,29.32,West,278,2.0,3.0,66,0.00,OVC,,0.00,WeatherDisplay:10.37,2013-02-15 06:44:00,
2013-02-15 00:49:00,37.6,27.2,29.32,WNW,290,2.0,3.0,66,0.00,OVC,,0.00,WeatherDisplay:10.37,2013-02-15 06:49:00,
2013-02-15 00:54:00,37.6,27.2,29.32,WNW,294,2.0,3.0,66,0.00,OVC,,0.00,WeatherDisplay:10.37,2013-02-15 06:54:00,
2013-02-15 00:59:00,37.6,27.2,29.32,NW,304,3.0,3.0,66,0.00,OVC,,0.00,WeatherDisplay:10.37,2013-02-15 06:59:00,
2013-02-15 01:04:00,37.6,27.2,29.32,NW,308,3.0,4.0,66,0.00,SCT,,0.00,WeatherDisplay:10.37,2013-02-15 07:04:00,
2013-02-15 01:09:00,37.6,27.2,29.32,NW,307,3.0,4.0,66,0.00,SCT,,0.00,WeatherDisplay:10.37,2013-02-15 07:09:00,
2013-02-15 01:14:00,37.6,27.2,29.32,NW,311,5.0,5.0,66,0.00,SCT,,0.00,WeatherDisplay:10.37,2013-02-15 07:14:00,
2013-02-15 01:19:00,37.6,27.2,29.32,NW,309,5.0,5.0,66,0.00,SCT,,0.00,WeatherDisplay:10.37,2013-02-15 07:19:00,
2013-02-15 01:24:00,37.6,27.2,29.32,NW,306,6.0,6.0,66,0.00,SCT,,0.00,WeatherDisplay:10.37,2013-02-15 07:24:00,
2013-02-15 01:29:00,37.6,27.2,29.32,NW,304,6.0,6.0,66,0.00,SCT,,0.00,WeatherDisplay:10.37,2013-02-15 07:29:00,
2013-02-15 01:34:00,37.6,27.2,29.32,NW,305,7.0,7.0,66,0.00,CLR,,0.00,WeatherDisplay:10.37,2013-02-15 07:34:00,
2013-02-15 01:39:00,37.6,27.2,29.32,NW,308,7.0,7.0,66,0.00,CLR,,0.00,WeatherDisplay:10.37,2013-02-15 07:39:00,
2013-02-15 01:44:00,37.6,27.2,29.32,NW,314,8.0,8.0,66,0.00,CLR,,0.00,WeatherDisplay:10.37,2013-02-15 07:44:00,
2013-02-15 01:49:00,37.6,27.2,29.32,NW,315,8.0,8.0,66,0.00,SCT,,0.00,WeatherDisplay:10.37,2013-02-15 07:49:00,
2013-02-15 01:54:00,37.6,27.2,29.32,NW,315,8.0,8.0,66,0.00,SCT,,0.00,WeatherDisplay:10.37,2013-02-15 07:54:00,
2013-02-15 01:59:00,37.6,27.2,29.32,NW,315,8.0,8.0,66,0.00,SCT,,0.00,WeatherDisplay:10.37,2013-02-15 07:59:00,
2013-02-15 02:04:00,37.6,27.2,29.32,NW,319,8.0,8.0,66,0.00,CLR,,0.00,WeatherDisplay:10.37,2013-02-15 08:04:00,
2013-02-15 02:09:00,37.6,27.2,29.32,NW,320,8.0,8.0,66,0.00,CLR,,0.00,WeatherDisplay:10.37,2013-02-15 08:09:00,
2013-02-15 02:14:00,37.6,27.2,29.32,NW,320,8.0,8.0,66,0.00,CLR,,0.00,WeatherDisplay:10.37,2013-02-15 08:14:00,
2013-02-15 02:19:00,37.6,27.2,29.32,NW,320,8.0,8.0,66,0.00,CLR,,0.00,WeatherDisplay:10.37,2013-02-15 08:19:00,
2013-02-15 02:24:00,37.6,27.2,29.32,NW,318,8.0,8.0,66,0.00,CLR,,0.00,WeatherDisplay:10.37,2013-02-15 08:24:00,
2013-02-15 02:29:00,37.6,27.2,29.32,NW,315,8.0,8.0,66,0.00,CLR,,0.00,WeatherDisplay:10.37,2013-02-15 08:29:00,
2013-02-15 02:34:00,37.6,27.2,29.32,NW,317,8.0,8.0,66,0.00,CLR,,0.00,WeatherDisplay:10.37,2013-02-15 08:34:00,
2013-02-15 02:39:00,37.6,27.2,29.35,NW,315,8.0,8.0,66,0.00,CLR,,0.00,WeatherDisplay:10.37,2013-02-15 08:39:00,
2013-02-15 02:44:00,37.6,27.2,29.35,NW,319,7.0,7.0,66,0.00,CLR,,0.00,WeatherDisplay:10.37,2013-02-15 08:44:00,
2013-02-15 02:49:00,37.6,27.2,29.32,NW,323,7.0,7.0,66,0.00,CLR,,0.00,WeatherDisplay:10.37,2013-02-15 08:49:00,
2013-02-15 02:54:00,33.1,25.7,29.35,NW,319,7.0,7.0,74,0.00,CLR,,0.00,WeatherDisplay:10.37,2013-02-15 08:54:00,
2013-02-15 02:59:00,33.1,25.7,29.35,NW,313,7.0,7.0,74,0.00,CLR,,0.00,WeatherDisplay:10.37,2013-02-15 08:59:00,
2013-02-15 03:04:00,32.9,25.5,29.35,NW,310,7.0,7.0,74,0.00,CLR,,0.00,WeatherDisplay:10.37,2013-02-15 09:04:00,
2013-02-15 03:09:00,32.9,25.5,29.35,NW,310,7.0,7.0,74,0.00,CLR,,0.00,WeatherDisplay:10.37,2013-02-15 09:09:00,
2013-02-15 03:14:00,32.9,25.5,29.35,NW,310,7.0,7.0,74,0.00,CLR,,0.00,WeatherDisplay:10.37,2013-02-15 09:14:00,
2013-02-15 03:19:00,32.9,25.8,29.35,NW,312,8.0,8.0,75,0.00,CLR,,0.00,WeatherDisplay:10.37,2013-02-15 09:19:00,
2013-02-15 03:24:00,32.9,25.8,29.35,NW,311,8.0,8.0,75,0.00,CLR,,0.00,WeatherDisplay:10.37,2013-02-15 09:24:00,
2013-02-15 03:29:00,32.5,25.5,29.35,NW,312,8.0,8.0,75,0.00,CLR,,0.00,WeatherDisplay:10.37,2013-02-15 09:29:00,
2013-02-15 03:34:00,32.5,25.5,29.35,NW,311,8.0,8.0,75,0.00,CLR,,0.00,WeatherDisplay:10.37,2013-02-15 09:34:00,
2013-02-15 03:40:00,32.4,25.3,29.35,NW,310,8.0,8.0,75,0.00,CLR,,0.00,WeatherDisplay:10.37,2013-02-15 09:40:00,
2013-02-15 03:49:00,32.0,25.3,29.35,NW,318,7.0,8.0,76,0.00,CLR,,0.00,WeatherDisplay:10.37,2013-02-15 09:49:00,
2013-02-15 03:54:00,32.0,25.3,29.35,NW,321,8.0,8.0,76,0.00,CLR,,0.00,WeatherDisplay:10.37,2013-02-15 09:54:00,
2013-02-15 03:59:00,31.8,25.1,29.35,NW,325,8.0,8.0,76,0.00,CLR,,0.00,WeatherDisplay:10.37,2013-02-15 09:59:00,
2013-02-15 04:04:00,32.0,25.0,29.35,NW,321,8.0,8.0,75,0.00,SCT,,0.00,WeatherDisplay:10.37,2013-02-15 10:04:00,
2013-02-15 04:09:00,32.0,25.0,29.35,NW,320,8.0,9.0,75,0.00,SCT,,0.00,WeatherDisplay:10.37,2013-02-15 10:09:00,
2013-02-15 04:14:00,32.2,25.1,29.35,NW,320,9.0,9.0,75,0.00,SCT,,0.00,WeatherDisplay:10.37,2013-02-15 10:14:00,
2013-02-15 04:19:00,31.8,24.5,29.35,NW,320,9.0,9.0,74,0.00,SCT,,0.00,WeatherDisplay:10.37,2013-02-15 10:19:00,
2013-02-15 04:24:00,31.6,24.3,29.35,NW,318,9.0,9.0,74,0.00,SCT,,0.00,WeatherDisplay:10.37,2013-02-15 10:24:00,
2013-02-15 04:29:00,31.8,24.5,29.35,NW,317,9.0,9.0,74,0.00,SCT,,0.00,WeatherDisplay:10.37,2013-02-15 10:29:00,
2013-02-15 04:34:00,32.0,24.6,29.38,NW,317,9.0,9.0,74,0.00,BKN,,0.00,WeatherDisplay:10.37,2013-02-15 10:34:00,
2013-02-15 04:39:00,31.6,24.3,29.38,NW,318,9.0,9.0,74,0.00,BKN,,0.00,WeatherDisplay:10.37,2013-02-15 10:39:00,
2013-02-15 04:44:00,31.5,23.8,29.38,NW,324,9.0,9.0,73,0.00,BKN,,0.00,WeatherDisplay:10.37,2013-02-15 10:44:00,
2013-02-15 04:49:00,31.8,24.1,29.38,NNW,330,9.0,9.0,73,0.00,SCT,,0.00,WeatherDisplay:10.37,2013-02-15 10:49:00,
2013-02-15 04:54:00,31.5,23.8,29.38,NNW,328,9.0,9.0,73,0.00,SCT,,0.00,WeatherDisplay:10.37,2013-02-15 10:54:00,
2013-02-15 04:59:00,31.1,23.5,29.38,NW,323,8.0,9.0,73,0.00,SCT,,0.00,WeatherDisplay:10.37,2013-02-15 10:59:00,
2013-02-15 05:04:00,30.7,23.4,29.38,NW,324,8.0,9.0,74,0.00,CLR,,0.00,WeatherDisplay:10.37,2013-02-15 11:04:00,
2013-02-15 05:09:00,30.6,23.3,29.38,NNW,327,9.0,9.0,74,0.00,CLR,,0.00,WeatherDisplay:10.37,2013-02-15 11:09:00,
2013-02-15 05:14:00,30.0,22.4,29.38,NNW,328,9.0,9.0,73,0.00,CLR,,0.00,WeatherDisplay:10.37,2013-02-15 11:14:00,
2013-02-15 05:19:00,29.8,22.6,29.38,NW,325,10.0,10.0,74,0.00,CLR,,0.00,WeatherDisplay:10.37,2013-02-15 11:19:00,
2013-02-15 05:24:00,29.8,22.6,29.38,NW,325,10.0,10.0,74,0.00,CLR,,0.00,WeatherDisplay:10.37,2013-02-15 11:24:00,
2013-02-15 05:29:00,29.7,22.4,29.38,NNW,327,10.0,10.0,74,0.00,CLR,,0.00,WeatherDisplay:10.37,2013-02-15 11:29:00,
2013-02-15 05:34:00,29.7,22.4,29.38,NNW,336,10.0,10.0,74,0.00,SCT,,0.00,WeatherDisplay:10.37,2013-02-15 11:34:00,
2013-02-15 05:39:00,29.7,22.4,29.38,NNW,335,10.0,10.0,74,0.00,SCT,,0.00,WeatherDisplay:10.37,2013-02-15 11:39:00,
2013-02-15 05:44:00,29.5,21.9,29.38,NNW,334,10.0,10.0,73,0.00,SCT,,0.00,WeatherDisplay:10.37,2013-02-15 11:44:00,
2013-02-15 05:49:00,29.8,21.9,29.38,NNW,330,10.0,12.0,72,0.00,CLR,,0.00,WeatherDisplay:10.37,2013-02-15 11:49:00,
2013-02-15 05:54:00,29.8,21.9,29.38,NNW,328,10.0,11.0,72,0.00,CLR,,0.00,WeatherDisplay:10.37,2013-02-15 11:54:00,
2013-02-15 05:59:00,29.7,21.4,29.38,NNW,330,10.0,10.0,71,0.00,CLR,,0.00,WeatherDisplay:10.37,2013-02-15 11:59:00,
2013-02-15 06:04:00,29.8,21.2,29.41,NNW,327,10.0,10.0,70,0.00,SCT,,0.00,WeatherDisplay:10.37,2013-02-15 12:04:00,
2013-02-15 06:09:00,29.8,20.9,29.41,NNW,327,10.0,10.0,69,0.00,SCT,,0.00,WeatherDisplay:10.37,2013-02-15 12:09:00,
2013-02-15 06:14:00,29.8,20.2,29.41,NNW,330,12.0,12.0,67,0.00,SCT,,0.00,WeatherDisplay:10.37,2013-02-15 12:14:00,
2013-02-15 06:19:00,29.8,20.2,29.41,NW,321,12.0,12.0,67,0.00,SCT,,0.00,WeatherDisplay:10.37,2013-02-15 12:19:00,
2013-02-15 06:24:00,29.8,20.2,29.41,NW,316,12.0,12.0,67,0.00,SCT,,0.00,WeatherDisplay:10.37,2013-02-15 12:24:00,
2013-02-15 06:29:00,30.0,20.4,29.41,NW,315,10.0,11.0,67,0.00,SCT,,0.00,WeatherDisplay:10.37,2013-02-15 12:29:00,
2013-02-15 06:34:00,30.0,20.0,29.41,NW,326,10.0,10.0,66,0.00,BKN,,0.00,WeatherDisplay:10.37,2013-02-15 12:34:00,
2013-02-15 06:39:00,30.0,20.0,29.41,NNW,328,10.0,10.0,66,0.00,BKN,,0.00,WeatherDisplay:10.37,2013-02-15 12:39:00,
2013-02-15 06:44:00,30.2,20.2,29.41,NW,325,10.0,11.0,66,0.00,BKN,,0.00,WeatherDisplay:10.37,2013-02-15 12:44:00,
2013-02-15 06:49:00,29.7,19.3,29.41,NW,323,12.0,12.0,65,0.00,SCT,,0.00,WeatherDisplay:10.37,2013-02-15 12:49:00,
2013-02-15 06:54:00,29.7,19.3,29.41,NW,321,12.0,12.0,65,0.00,SCT,,0.00,WeatherDisplay:10.37,2013-02-15 12:54:00,
2013-02-15 06:59:00,29.3,18.6,29.41,NW,320,12.0,12.0,64,0.00,SCT,,0.00,WeatherDisplay:10.37,2013-02-15 12:59:00,
2013-02-15 07:04:00,28.9,18.6,29.41,NW,316,12.0,12.0,65,0.00,BKN,,0.00,WeatherDisplay:10.37,2013-02-15 13:04:00,
2013-02-15 07:09:00,29.1,18.8,29.41,NW,319,12.0,12.0,65,0.00,BKN,,0.00,WeatherDisplay:10.37,2013-02-15 13:09:00,
2013-02-15 07:14:00,28.6,18.7,29.44,NW,321,12.0,12.0,66,0.00,BKN,,0.00,WeatherDisplay:10.37,2013-02-15 13:14:00,
2013-02-15 07:19:00,28.2,18.0,29.44,NW,316,13.0,13.0,65,0.00,BKN,,0.00,WeatherDisplay:10.37,2013-02-15 13:19:00,
2013-02-15 07:24:00,28.2,17.6,29.44,NW,315,13.0,13.0,64,0.00,BKN,,0.00,WeatherDisplay:10.37,2013-02-15 13:24:00,
2013-02-15 07:29:00,27.9,16.9,29.44,NW,315,13.0,13.0,63,0.00,BKN,,0.00,WeatherDisplay:10.37,2013-02-15 13:29:00,
2013-02-15 07:34:00,27.9,16.5,29.44,NW,316,14.0,14.0,62,0.00,OVC,,0.00,WeatherDisplay:10.37,2013-02-15 13:34:00,
2013-02-15 07:39:00,27.9,16.1,29.44,NW,318,14.0,14.0,61,0.00,OVC,,0.00,WeatherDisplay:10.37,2013-02-15 13:39:00,
2013-02-15 07:44:00,27.5,15.4,29.44,NW,319,14.0,14.0,60,0.00,OVC,,0.00,WeatherDisplay:10.37,2013-02-15 13:44:00,
2013-02-15 07:49:00,27.3,15.2,29.44,NW,318,14.0,14.0,60,0.00,BKN,,0.00,WeatherDisplay:10.37,2013-02-15 13:49:00,
2013-02-15 07:55:00,27.3,15.2,29.44,NW,320,14.0,14.0,60,0.00,BKN,,0.00,WeatherDisplay:10.37,2013-02-15 13:55:00,
2013-02-15 08:04:00,28.6,15.7,29.47,NW,313,14.0,14.0,58,0.00,SCT,,0.00,WeatherDisplay:10.37,2013-02-15 14:04:00,
2013-02-15 08:09:00,28.2,14.9,29.47,NW,314,14.0,14.0,57,0.00,SCT,,0.00,WeatherDisplay:10.37,2013-02-15 14:09:00,
2013-02-15 08:14:00,28.6,14.4,29.47,NW,316,14.0,14.0,55,0.00,SCT,,0.00,WeatherDisplay:10.37,2013-02-15 14:14:00,
2013-02-15 08:19:00,28.8,14.6,29.47,NW,317,14.0,14.0,55,0.00,SCT,,0.00,WeatherDisplay:10.37,2013-02-15 14:19:00,
2013-02-15 08:24:00,28.8,14.6,29.47,NW,317,14.0,14.0,55,0.00,SCT,,0.00,WeatherDisplay:10.37,2013-02-15 14:24:00,
2013-02-15 08:29:00,29.3,15.1,29.47,NW,315,14.0,14.0,55,0.00,SCT,,0.00,WeatherDisplay:10.37,2013-02-15 14:29:00,
2013-02-15 08:34:00,29.3,14.3,29.47,NW,315,14.0,14.0,53,0.00,SCT,,0.00,WeatherDisplay:10.37,2013-02-15 14:34:00,
2013-02-15 08:39:00,29.7,14.6,29.47,NW,315,13.0,14.0,53,0.00,SCT,,0.00,WeatherDisplay:10.37,2013-02-15 14:39:00,
2013-02-15 08:44:00,29.5,14.4,29.47,NW,315,13.0,13.0,53,0.00,SCT,,0.00,WeatherDisplay:10.37,2013-02-15 14:44:00,
2013-02-15 08:49:00,29.7,14.6,29.47,NW,315,13.0,13.0,53,0.00,CLR,,0.00,WeatherDisplay:10.37,2013-02-15 14:49:00,
2013-02-15 08:54:00,29.8,14.3,29.47,NW,315,13.0,13.0,52,0.00,CLR,,0.00,WeatherDisplay:10.37,2013-02-15 14:54:00,
2013-02-15 08:59:00,30.4,14.4,29.47,NW,317,13.0,13.0,51,0.00,CLR,,0.00,WeatherDisplay:10.37,2013-02-15 14:59:00,
2013-02-15 09:04:00,29.5,13.1,29.47,NW,314,13.0,13.0,50,0.00,SCT,,0.00,WeatherDisplay:10.37,2013-02-15 15:04:00,
2013-02-15 09:09:00,30.4,13.9,29.47,NW,309,13.0,13.0,50,0.00,SCT,,0.00,WeatherDisplay:10.37,2013-02-15 15:09:00,
2013-02-15 09:14:00,30.6,14.1,29.47,NW,311,13.0,13.0,50,0.00,SCT,,0.00,WeatherDisplay:10.37,2013-02-15 15:14:00,
2013-02-15 09:19:00,30.9,14.4,29.47,NW,319,13.0,13.0,50,0.00,SCT,,0.00,WeatherDisplay:10.37,2013-02-15 15:19:00,
2013-02-15 09:24:00,30.9,14.4,29.47,NW,317,13.0,13.0,50,0.00,SCT,,0.00,WeatherDisplay:10.37,2013-02-15 15:24:00,
2013-02-15 09:29:00,31.6,15.6,29.47,NNW,328,13.0,13.0,51,0.00,SCT,,0.00,WeatherDisplay:10.37,2013-02-15 15:29:00,
2013-02-15 09:34:00,31.8,15.3,29.47,NW,326,13.0,13.0,50,0.00,CLR,,0.00,WeatherDisplay:10.37,2013-02-15 15:34:00,
2013-02-15 09:39:00,31.6,15.1,29.47,NW,321,13.0,13.0,50,0.00,CLR,,0.00,WeatherDisplay:10.37,2013-02-15 15:39:00,
2013-02-15 09:44:00,31.3,14.3,29.47,NW,318,13.0,13.0,49,0.00,CLR,,0.00,WeatherDisplay:10.37,2013-02-15 15:44:00,
2013-02-15 09:49:00,30.9,14.0,29.47,NW,314,13.0,13.0,49,0.00,CLR,,0.00,WeatherDisplay:10.37,2013-02-15 15:49:00,
2013-02-15 09:54:00,30.9,14.0,29.47,NW,314,13.0,13.0,49,0.00,CLR,,0.00,WeatherDisplay:10.37,2013-02-15 15:54:00,
2013-02-15 09:59:00,32.0,15.4,29.50,NW,315,13.0,13.0,50,0.00,CLR,,0.00,WeatherDisplay:10.37,2013-02-15 15:59:00,
2013-02-15 10:04:00,31.3,13.8,29.50,NW,322,14.0,14.0,48,0.00,CLR,,0.00,WeatherDisplay:10.37,2013-02-15 16:04:00,
2013-02-15 10:09:00,31.5,14.0,29.50,NW,324,14.0,14.0,48,0.00,CLR,,0.00,WeatherDisplay:10.37,2013-02-15 16:09:00,
2013-02-15 10:14:00,32.4,15.3,29.50,NW,316,14.0,14.0,49,0.00,CLR,,0.00,WeatherDisplay:10.37,2013-02-15 16:14:00,
2013-02-15 10:19:00,32.0,15.0,29.50,NW,315,14.0,14.0,49,0.00,CLR,,0.00,WeatherDisplay:10.37,2013-02-15 16:19:00,
2013-02-15 10:24:00,31.6,14.6,29.50,NW,318,13.0,14.0,49,0.00,CLR,,0.00,WeatherDisplay:10.37,2013-02-15 16:24:00,
2013-02-15 10:29:00,32.4,14.8,29.50,NW,324,13.0,13.0,48,0.00,CLR,,0.00,WeatherDisplay:10.37,2013-02-15 16:29:00,
2013-02-15 10:34:00,32.2,14.7,29.50,NW,319,13.0,13.0,48,0.00,CLR,,0.00,WeatherDisplay:10.37,2013-02-15 16:34:00,
2013-02-15 10:39:00,32.5,15.0,29.50,NW,318,13.0,13.0,48,0.00,CLR,,0.00,WeatherDisplay:10.37,2013-02-15 16:39:00,
2013-02-15 10:44:00,32.5,14.5,29.50,NW,325,13.0,13.0,47,0.00,CLR,,0.00,WeatherDisplay:10.37,2013-02-15 16:44:00,
2013-02-15 10:49:00,33.1,15.5,29.50,NW,325,14.0,14.0,48,0.00,CLR,,0.00,WeatherDisplay:10.37,2013-02-15 16:49:00,
2013-02-15 10:54:00,33.6,16.5,29.50,NW,322,14.0,14.0,49,0.00,CLR,,0.00,WeatherDisplay:10.37,2013-02-15 16:54:00,
2013-02-15 10:59:00,33.1,14.5,29.50,NW,320,14.0,14.0,46,0.00,CLR,,0.00,WeatherDisplay:10.37,2013-02-15 16:59:00,
2013-02-15 11:04:00,33.8,15.2,29.50,NW,320,13.0,14.0,46,0.00,SCT,,0.00,WeatherDisplay:10.37,2013-02-15 17:04:00,
2013-02-15 11:09:00,33.4,15.3,29.50,NW,320,13.0,13.0,47,0.00,SCT,,0.00,WeatherDisplay:10.37,2013-02-15 17:09:00,
2013-02-15 11:14:00,33.8,14.7,29.50,NW,320,13.0,13.0,45,0.00,SCT,,0.00,WeatherDisplay:10.37,2013-02-15 17:14:00,
2013-02-15 11:19:00,34.0,14.8,29.50,NW,319,13.0,13.0,45,0.00,SCT,,0.00,WeatherDisplay:10.37,2013-02-15 17:19:00,
2013-02-15 11:24:00,33.6,15.0,29.50,NW,319,14.0,14.0,46,0.00,SCT,,0.00,WeatherDisplay:10.37,2013-02-15 17:24:00,
2013-02-15 11:29:00,33.6,14.5,29.50,NW,322,13.0,14.0,45,0.00,SCT,,0.00,WeatherDisplay:10.37,2013-02-15 17:29:00,
2013-02-15 11:34:00,33.3,14.2,29.50,NW,324,13.0,13.0,45,0.00,CLR,,0.00,WeatherDisplay:10.37,2013-02-15 17:34:00,
2013-02-15 11:39:00,33.3,14.2,29.50,NW,322,13.0,13.0,45,0.00,CLR,,0.00,WeatherDisplay:10.37,2013-02-15 17:39:00,
2013-02-15 11:44:00,34.3,15.2,29.50,NW,321,13.0,13.0,45,0.00,CLR,,0.00,WeatherDisplay:10.37,2013-02-15 17:44:00,
2013-02-15 11:49:00,34.5,14.3,29.50,NNW,330,13.0,13.0,43,0.00,CLR,,0.00,WeatherDisplay:10.37,2013-02-15 17:49:00,
2013-02-15 11:54:00,34.0,13.3,29.50,NNW,336,13.0,13.0,42,0.00,CLR,,0.00,WeatherDisplay:10.37,2013-02-15 17:54:00,
2013-02-15 11:59:00,34.0,13.3,29.50,NNW,330,13.0,13.0,42,0.00,CLR,,0.00,WeatherDisplay:10.37,2013-02-15 17:59:00,
2013-02-15 12:04:00,34.2,12.9,29.50,NNW,329,13.0,13.0,41,0.00,CLR,,0.00,WeatherDisplay:10.37,2013-02-15 18:04:00,
2013-02-15 12:09:00,34.2,12.3,29.50,NW,326,14.0,14.0,40,0.00,CLR,,0.00,WeatherDisplay:10.37,2013-02-15 18:09:00,
2013-02-15 12:14:00,34.5,13.8,29.50,NW,321,13.0,14.0,42,0.00,CLR,,0.00,WeatherDisplay:10.37,2013-02-15 18:14:00,
2013-02-15 12:19:00,34.7,13.4,29.50,NNW,327,13.0,13.0,41,0.00,CLR,,0.00,WeatherDisplay:10.37,2013-02-15 18:19:00,
2013-02-15 12:24:00,34.9,13.0,29.50,NW,325,13.0,13.0,40,0.00,CLR,,0.00,WeatherDisplay:10.37,2013-02-15 18:24:00,
2013-02-15 12:29:00,35.6,13.6,29.47,NNW,332,13.0,13.0,40,0.00,CLR,,0.00,WeatherDisplay:10.37,2013-02-15 18:29:00,
2013-02-15 12:34:00,35.6,13.6,29.47,NNW,332,13.0,13.0,40,0.00,CLR,,0.00,WeatherDisplay:10.37,2013-02-15 18:34:00,
2013-02-15 12:39:00,35.4,12.9,29.47,NW,324,13.0,13.0,39,0.00,CLR,,0.00,WeatherDisplay:10.37,2013-02-15 18:39:00,
2013-02-15 12:44:00,35.1,12.0,29.47,NW,321,13.0,13.0,38,0.00,CLR,,0.00,WeatherDisplay:10.37,2013-02-15 18:44:00,
2013-02-15 12:49:00,35.6,12.5,29.47,NNW,332,13.0,13.0,38,0.00,CLR,,0.00,WeatherDisplay:10.37,2013-02-15 18:49:00,
2013-02-15 12:54:00,35.6,11.2,29.47,NNW,336,13.0,13.0,36,0.00,CLR,,0.00,WeatherDisplay:10.37,2013-02-15 18:54:00,
2013-02-15 12:59:00,36.0,10.9,29.47,NW,325,13.0,13.0,35,0.00,CLR,,0.00,WeatherDisplay:10.37,2013-02-15 18:59:00,
2013-02-15 13:04:00,36.1,11.1,29.47,NNW,336,13.0,13.0,35,0.00,CLR,,0.00,WeatherDisplay:10.37,2013-02-15 19:04:00,
2013-02-15 13:09:00,36.1,10.4,29.47,NNW,335,13.0,13.0,34,0.00,CLR,,0.00,WeatherDisplay:10.37,2013-02-15 19:09:00,
2013-02-15 13:14:00,36.7,10.9,29.47,NNW,332,13.0,13.0,34,0.00,CLR,,0.00,WeatherDisplay:10.37,2013-02-15 19:14:00,
2013-02-15 13:19:00,36.5,10.7,29.47,NNW,346,13.0,13.0,34,0.00,CLR,,0.00,WeatherDisplay:10.37,2013-02-15 19:19:00,
2013-02-15 13:24:00,36.3,9.2,29.47,NNW,348,13.0,13.0,32,0.00,CLR,,0.00,WeatherDisplay:10.37,2013-02-15 19:24:00,
2013-02-15 13:29:00,36.3,9.2,29.47,NNW,335,13.0,13.0,32,0.00,CLR,,0.00,WeatherDisplay:10.37,2013-02-15 19:29:00,
2013-02-15 13:34:00,36.0,8.2,29.47,NNW,333,13.0,13.0,31,0.00,CLR,,0.00,WeatherDisplay:10.37,2013-02-15 19:34:00,
2013-02-15 13:39:00,36.5,8.7,29.47,NNW,327,12.0,13.0,31,0.00,CLR,,0.00,WeatherDisplay:10.37,2013-02-15 19:39:00,
2013-02-15 13:44:00,36.3,7.8,29.47,NW,315,12.0,12.0,30,0.00,CLR,,0.00,WeatherDisplay:10.37,2013-02-15 19:44:00,
2013-02-15 13:49:00,36.3,9.2,29.47,NW,323,12.0,12.0,32,0.00,CLR,,0.00,WeatherDisplay:10.37,2013-02-15 19:49:00,
2013-02-15 13:54:00,36.3,9.2,29.47,NNW,329,12.0,12.0,32,0.00,CLR,,0.00,WeatherDisplay:10.37,2013-02-15 19:54:00,
2013-02-15 13:59:00,36.3,9.9,29.47,NNW,335,12.0,12.0,33,0.00,CLR,,0.00,WeatherDisplay:10.37,2013-02-15 19:59:00,
2013-02-15 14:04:00,36.3,8.5,29.47,NNW,335,12.0,12.0,31,0.00,,,0.00,WeatherDisplay:10.37,2013-02-15 20:04:00,
2013-02-15 14:09:00,36.7,8.8,29.47,NNW,335,12.0,12.0,31,0.00,,,0.00,WeatherDisplay:10.37,2013-02-15 20:09:00,
2013-02-15 14:14:00,36.5,8.0,29.47,NNW,331,12.0,12.0,30,0.00,,,0.00,WeatherDisplay:10.37,2013-02-15 20:14:00,
2013-02-15 14:19:00,36.5,8.0,29.47,NW,325,12.0,12.0,30,0.00,,,0.00,WeatherDisplay:10.37,2013-02-15 20:19:00,
2013-02-15 14:24:00,36.7,8.1,29.47,NW,325,12.0,12.0,30,0.00,,,0.00,WeatherDisplay:10.37,2013-02-15 20:24:00,
2013-02-15 14:29:00,36.9,8.3,29.47,NW,325,10.0,11.0,30,0.00,,,0.00,WeatherDisplay:10.37,2013-02-15 20:29:00,
2013-02-15 14:34:00,36.7,8.1,29.47,NW,325,10.0,11.0,30,0.00,CLR,,0.00,WeatherDisplay:10.37,2013-02-15 20:34:00,
2013-02-15 14:39:00,36.7,8.8,29.47,NW,325,10.0,11.0,31,0.00,CLR,,0.00,WeatherDisplay:10.37,2013-02-15 20:39:00,
2013-02-15 14:44:00,36.7,8.8,29.47,NW,325,10.0,11.0,31,0.00,CLR,,0.00,WeatherDisplay:10.37,2013-02-15 20:44:00,
2013-02-15 14:49:00,36.7,9.5,29.47,NNW,342,10.0,11.0,32,0.00,CLR,,0.00,WeatherDisplay:10.37,2013-02-15 20:49:00,
2013-02-15 14:54:00,36.7,9.5,29.47,North,350,10.0,10.0,32,0.00,CLR,,0.00,WeatherDisplay:10.37,2013-02-15 20:54:00,
2013-02-15 14:59:00,36.7,8.8,29.47,North,350,9.0,10.0,31,0.00,CLR,,0.00,WeatherDisplay:10.37,2013-02-15 20:59:00,
2013-02-15 15:04:00,36.9,9.7,29.47,NW,325,9.0,10.0,32,0.00,CLR,,0.00,WeatherDisplay:10.37,2013-02-15 21:04:00,
2013-02-15 15:09:00,36.7,9.5,29.47,NW,315,9.0,10.0,32,0.00,CLR,,0.00,WeatherDisplay:10.37,2013-02-15 21:09:00,
2013-02-15 15:14:00,36.3,8.5,29.47,NW,315,9.0,10.0,31,0.00,CLR,,0.00,WeatherDisplay:10.37,2013-02-15 21:14:00,
2013-02-15 15:19:00,36.1,8.4,29.47,NW,315,10.0,10.0,31,0.00,CLR,,0.00,WeatherDisplay:10.37,2013-02-15 21:19:00,
2013-02-15 15:24:00,36.3,8.5,29.47,NW,315,10.0,10.0,31,0.00,CLR,,0.00,WeatherDisplay:10.37,2013-02-15 21:24:00,
2013-02-15 15:29:00,36.3,8.5,29.47,NW,315,10.0,10.0,31,0.00,CLR,,0.00,WeatherDisplay:10.37,2013-02-15 21:29:00,
2013-02-15 15:34:00,36.3,7.8,29.47,NW,315,10.0,10.0,30,0.00,CLR,,0.00,WeatherDisplay:10.37,2013-02-15 21:34:00,
2013-02-15 15:39:00,36.3,7.8,29.47,NW,315,10.0,10.0,30,0.00,CLR,,0.00,WeatherDisplay:10.37,2013-02-15 21:39:00,
2013-02-15 15:44:00,36.1,7.6,29.47,NW,315,10.0,10.0,30,0.00,CLR,,0.00,WeatherDisplay:10.37,2013-02-15 21:44:00,
2013-02-15 15:49:00,35.8,7.3,29.47,NW,322,10.0,10.0,30,0.00,CLR,,0.00,WeatherDisplay:10.37,2013-02-15 21:49:00,
2013-02-15 15:54:00,35.8,7.3,29.47,NW,317,10.0,10.0,30,0.00,CLR,,0.00,WeatherDisplay:10.37,2013-02-15 21:54:00,
2013-02-15 15:59:00,36.0,7.5,29.47,NW,320,10.0,10.0,30,0.00,CLR,,0.00,WeatherDisplay:10.37,2013-02-15 21:59:00,
2013-02-15 16:04:00,36.0,8.2,29.47,NW,324,10.0,10.0,31,0.00,SCT,,0.00,WeatherDisplay:10.37,2013-02-15 22:04:00,
2013-02-15 16:09:00,35.6,7.2,29.47,NW,323,10.0,10.0,30,0.00,SCT,,0.00,WeatherDisplay:10.37,2013-02-15 22:09:00,
2013-02-15 16:14:00,35.6,8.6,29.47,NW,324,10.0,10.0,32,0.00,SCT,,0.00,WeatherDisplay:10.37,2013-02-15 22:14:00,
2013-02-15 16:19:00,35.6,8.6,29.47,NNW,328,10.0,10.0,32,0.00,SCT,,0.00,WeatherDisplay:10.37,2013-02-15 22:19:00,
2013-02-15 16:24:00,35.6,8.6,29.47,NNW,333,10.0,10.0,32,0.00,SCT,,0.00,WeatherDisplay:10.37,2013-02-15 22:24:00,
2013-02-15 16:29:00,35.2,9.0,29.47,NW,319,9.0,10.0,33,0.00,SCT,,0.00,WeatherDisplay:10.37,2013-02-15 22:29:00,
2013-02-15 16:34:00,34.9,8.0,29.47,WNW,295,9.0,10.0,32,0.00,SCT,,0.00,WeatherDisplay:10.37,2013-02-15 22:34:00,
2013-02-15 16:39:00,35.1,8.1,29.47,WNW,303,9.0,9.0,32,0.00,SCT,,0.00,WeatherDisplay:10.37,2013-02-15 22:39:00,
2013-02-15 16:44:00,34.7,7.8,29.47,NW,311,9.0,9.0,32,0.00,SCT,,0.00,WeatherDisplay:10.37,2013-02-15 22:44:00,
2013-02-15 16:49:00,34.3,8.2,29.47,NW,310,10.0,10.0,33,0.00,CLR,,0.00,WeatherDisplay:10.37,2013-02-15 22:49:00,
2013-02-15 16:54:00,34.3,8.8,29.47,NW,312,10.0,10.0,34,0.00,CLR,,0.00,WeatherDisplay:10.37,2013-02-15 22:54:00,
2013-02-15 16:59:00,34.0,7.8,29.47,NW,308,10.0,10.0,33,0.00,CLR,,0.00,WeatherDisplay:10.37,2013-02-15 22:59:00,
2013-02-15 17:04:00,33.8,8.4,29.47,NW,318,9.0,10.0,34,0.00,CLR,,0.00,WeatherDisplay:10.37,2013-02-15 23:04:00,
2013-02-15 17:09:00,33.8,8.4,29.47,NW,325,9.0,10.0,34,0.00,CLR,,0.00,WeatherDisplay:10.37,2013-02-15 23:09:00,
2013-02-15 17:14:00,33.4,8.7,29.47,NNW,332,9.0,9.0,35,0.00,CLR,,0.00,WeatherDisplay:10.37,2013-02-15 23:14:00,
2013-02-15 17:19:00,33.3,9.1,29.47,NW,312,9.0,9.0,36,0.00,CLR,,0.00,WeatherDisplay:10.37,2013-02-15 23:19:00,
2013-02-15 17:24:00,32.7,8.7,29.47,NW,307,9.0,9.0,36,0.00,CLR,,0.00,WeatherDisplay:10.37,2013-02-15 23:24:00,
2013-02-15 17:29:00,32.5,9.7,29.47,NW,314,8.0,9.0,38,0.00,CLR,,0.00,WeatherDisplay:10.37,2013-02-15 23:29:00,
2013-02-15 17:34:00,32.2,10.0,29.47,NNW,327,8.0,8.0,39,0.00,CLR,,0.00,WeatherDisplay:10.37,2013-02-15 23:34:00,
2013-02-15 17:39:00,31.6,9.5,29.47,NNW,330,7.0,8.0,39,0.00,CLR,,0.00,WeatherDisplay:10.37,2013-02-15 23:39:00,
2013-02-15 17:44:00,31.1,10.1,29.47,NW,315,7.0,7.0,41,0.00,CLR,,0.00,WeatherDisplay:10.37,2013-02-15 23:44:00,
2013-02-15 17:49:00,30.2,9.8,29.50,WNW,285,6.0,7.0,42,0.00,CLR,,0.00,WeatherDisplay:10.37,2013-02-15 23:49:00,
2013-02-15 17:54:00,30.0,10.7,29.50,West,280,6.0,6.0,44,0.00,CLR,,0.00,WeatherDisplay:10.37,2013-02-15 23:54:00,
2013-02-15 17:59:00,30.6,12.2,29.50,WNW,290,5.0,5.0,46,0.00,CLR,,0.00,WeatherDisplay:10.37,2013-02-15 23:59:00,
2013-02-15 18:04:00,30.9,12.5,29.50,WNW,295,3.0,5.0,46,0.00,CLR,,0.00,WeatherDisplay:10.37,2013-02-16 00:04:00,
2013-02-15 18:09:00,30.9,12.5,29.50,WNW,297,3.0,4.0,46,0.00,CLR,,0.00,WeatherDisplay:10.37,2013-02-16 00:09:00,
2013-02-15 18:14:00,30.9,13.0,29.50,WNW,300,3.0,4.0,47,0.00,CLR,,0.00,WeatherDisplay:10.37,2013-02-16 00:14:00,
2013-02-15 18:19:00,30.9,13.0,29.50,WNW,295,3.0,4.0,47,0.00,CLR,,0.00,WeatherDisplay:10.37,2013-02-16 00:19:00,
2013-02-15 18:24:00,30.9,13.5,29.50,WNW,293,3.0,4.0,48,0.00,CLR,,0.00,WeatherDisplay:10.37,2013-02-16 00:24:00,
2013-02-15 18:29:00,30.6,13.2,29.50,WNW,299,3.0,4.0,48,0.00,CLR,,0.00,WeatherDisplay:10.37,2013-02-16 00:29:00,
2013-02-15 18:34:00,30.4,13.5,29.50,WNW,296,3.0,4.0,49,0.00,SCT,,0.00,WeatherDisplay:10.37,2013-02-16 00:34:00,
2013-02-15 18:39:00,30.0,13.1,29.50,WNW,298,5.0,5.0,49,0.00,SCT,,0.00,WeatherDisplay:10.37,2013-02-16 00:39:00,
2013-02-15 18:44:00,30.0,13.1,29.50,NW,305,5.0,5.0,49,0.00,SCT,,0.00,WeatherDisplay:10.37,2013-02-16 00:44:00,
2013-02-15 18:49:00,30.2,13.3,29.50,NW,304,5.0,5.0,49,0.00,OVC,,0.00,WeatherDisplay:10.37,2013-02-16 00:49:00,
2013-02-15 18:54:00,30.4,13.5,29.50,WNW,303,5.0,5.0,49,0.00,OVC,,0.00,WeatherDisplay:10.37,2013-02-16 00:54:00,
2013-02-15 18:59:00,30.4,13.5,29.50,NW,306,5.0,5.0,49,0.00,OVC,,0.00,WeatherDisplay:10.37,2013-02-16 00:59:00,
2013-02-15 19:05:00,30.0,13.1,29.50,NW,304,5.0,6.0,49,0.00,SCT,,0.00,WeatherDisplay:10.37,2013-02-16 01:05:00,
2013-02-15 19:14:00,29.8,13.0,29.50,WNW,298,5.0,5.0,49,0.00,SCT,,0.00,WeatherDisplay:10.37,2013-02-16 01:14:00,
2013-02-15 19:19:00,29.7,12.8,29.50,NW,304,5.0,5.0,49,0.00,SCT,,0.00,WeatherDisplay:10.37,2013-02-16 01:19:00,
2013-02-15 19:24:00,30.0,13.1,29.47,NW,309,5.0,5.0,49,0.00,SCT,,0.00,WeatherDisplay:10.37,2013-02-16 01:24:00,
2013-02-15 19:29:00,29.8,13.0,29.50,NW,308,3.0,5.0,49,0.00,SCT,,0.00,WeatherDisplay:10.37,2013-02-16 01:29:00,
2013-02-15 19:34:00,29.8,13.0,29.50,NW,305,3.0,4.0,49,0.00,CLR,,0.00,WeatherDisplay:10.37,2013-02-16 01:34:00,
2013-02-15 19:40:00,29.8,13.0,29.47,WNW,302,3.0,4.0,49,0.00,CLR,,0.00,WeatherDisplay:10.37,2013-02-16 01:40:00,
2013-02-15 19:44:00,29.8,13.4,29.47,WNW,303,3.0,3.0,50,0.00,CLR,,0.00,WeatherDisplay:10.37,2013-02-16 01:44:00,
2013-02-15 19:54:00,29.7,13.3,29.47,WNW,303,3.0,3.0,50,0.00,SCT,,0.00,WeatherDisplay:10.37,2013-02-16 01:54:00,
2013-02-15 19:59:00,29.1,12.8,29.47,NW,320,3.0,3.0,50,0.00,SCT,,0.00,WeatherDisplay:10.37,2013-02-16 01:59:00,
2013-02-15 20:04:00,29.1,13.7,29.47,NNW,331,2.0,3.0,52,0.00,BKN,,0.00,WeatherDisplay:10.37,2013-02-16 02:04:00,
2013-02-15 20:09:00,28.9,13.9,29.47,NW,325,2.0,3.0,53,0.00,BKN,,0.00,WeatherDisplay:10.37,2013-02-16 02:09:00,
2013-02-15 20:14:00,29.1,14.1,29.47,NW,312,2.0,2.0,53,0.00,BKN,,0.00,WeatherDisplay:10.37,2013-02-16 02:14:00,
2013-02-15 20:19:00,29.3,13.8,29.47,NW,309,1.0,2.0,52,0.00,BKN,,0.00,WeatherDisplay:10.37,2013-02-16 02:19:00,
2013-02-15 20:24:00,29.5,14.0,29.47,NW,315,1.0,2.0,52,0.00,BKN,,0.00,WeatherDisplay:10.37,2013-02-16 02:24:00,
2013-02-15 20:29:00,29.8,14.3,29.47,NNW,330,2.0,2.0,52,0.00,BKN,,0.00,WeatherDisplay:10.37,2013-02-16 02:29:00,
2013-02-15 20:34:00,30.0,14.1,29.50,NNW,333,2.0,3.0,51,0.00,OVC,,0.00,WeatherDisplay:10.37,2013-02-16 02:34:00,
2013-02-15 20:39:00,30.4,13.5,29.50,NNW,330,3.0,3.0,49,0.00,OVC,,0.00,WeatherDisplay:10.37,2013-02-16 02:39:00,
2013-02-15 20:44:00,30.2,12.8,29.50,NNW,330,5.0,5.0,48,0.00,OVC,,0.00,WeatherDisplay:10.37,2013-02-16 02:44:00,
2013-02-15 20:49:00,30.4,12.0,29.50,NNW,332,6.0,6.0,46,0.00,OVC,,0.00,WeatherDisplay:10.37,2013-02-16 02:49:00,
2013-02-15 20:54:00,30.4,11.5,29.50,NNW,333,6.0,6.0,45,0.00,OVC,,0.00,WeatherDisplay:10.37,2013-02-16 02:54:00,
2013-02-15 20:59:00,30.4,11.5,29.50,NNW,331,7.0,7.0,45,0.00,OVC,,0.00,WeatherDisplay:10.37,2013-02-16 02:59:00,
2013-02-15 21:04:00,30.4,10.5,29.50,NNW,332,8.0,8.0,43,0.00,OVC,,0.00,WeatherDisplay:10.37,2013-02-16 03:04:00,
2013-02-15 21:09:00,30.2,10.9,29.50,NNW,338,8.0,8.0,44,0.00,OVC,,0.00,WeatherDisplay:10.37,2013-02-16 03:09:00,
2013-02-15 21:14:00,29.8,11.1,29.50,North,349,9.0,9.0,45,0.00,OVC,,0.00,WeatherDisplay:10.37,2013-02-16 03:14:00,
2013-02-15 21:19:00,29.3,10.6,29.50,NNW,344,10.0,10.0,45,0.00,OVC,,0.00,WeatherDisplay:10.37,2013-02-16 03:19:00,
2013-02-15 21:24:00,29.1,10.4,29.50,NNW,344,10.0,10.0,45,0.00,OVC,,0.00,WeatherDisplay:10.37,2013-02-16 03:24:00,
2013-02-15 21:29:00,28.8,10.6,29.50,NNW,344,12.0,12.0,46,0.00,OVC,,0.00,WeatherDisplay:10.37,2013-02-16 03:29:00,
2013-02-15 21:34:00,28.6,10.9,29.50,NNW,340,12.0,12.0,47,0.00,BKN,,0.00,WeatherDisplay:10.37,2013-02-16 03:34:00,
2013-02-15 21:39:00,28.6,11.3,29.50,NNW,341,13.0,13.0,48,0.00,BKN,,0.00,WeatherDisplay:10.37,2013-02-16 03:39:00,
2013-02-15 21:44:00,28.0,11.3,29.50,NNW,344,13.0,13.0,49,0.00,BKN,,0.00,WeatherDisplay:10.37,2013-02-16 03:44:00,
2013-02-15 21:49:00,27.7,11.4,29.50,NNW,343,13.0,13.0,50,0.00,OVC,,0.00,WeatherDisplay:10.37,2013-02-16 03:49:00,
2013-02-15 21:54:00,27.7,11.4,29.50,NNW,338,13.0,13.0,50,0.00,OVC,,0.00,WeatherDisplay:10.37,2013-02-16 03:54:00,
2013-02-15 21:59:00,27.3,11.1,29.50,NNW,336,13.0,13.0,50,0.00,OVC,,0.00,WeatherDisplay:10.37,2013-02-16 03:59:00,
2013-02-15 22:04:00,27.1,10.9,29.50,NNW,340,14.0,14.0,50,0.00,SCT,,0.00,WeatherDisplay:10.37,2013-02-16 04:04:00,
2013-02-15 22:09:00,27.1,11.4,29.50,NNW,342,14.0,14.0,51,0.00,SCT,,0.00,WeatherDisplay:10.37,2013-02-16 04:09:00,
2013-02-15 22:14:00,26.8,11.5,29.50,NNW,341,15.0,15.0,52,0.00,SCT,,0.00,WeatherDisplay:10.37,2013-02-16 04:14:00,
2013-02-15 22:19:00,26.6,11.3,29.50,NNW,340,15.0,15.0,52,0.00,SCT,,0.00,WeatherDisplay:10.37,2013-02-16 04:19:00,
2013-02-15 22:24:00,26.6,11.3,29.50,NNW,338,15.0,15.0,52,0.00,SCT,,0.00,WeatherDisplay:10.37,2013-02-16 04:24:00,
2013-02-15 22:29:00,26.2,11.4,29.50,NNW,335,15.0,15.0,53,0.00,SCT,,0.00,WeatherDisplay:10.37,2013-02-16 04:29:00,
2013-02-15 22:34:00,26.4,12.0,29.50,NNW,335,14.0,15.0,54,0.00,SCT,,0.00,WeatherDisplay:10.37,2013-02-16 04:34:00,
2013-02-15 22:39:00,26.2,11.8,29.50,NNW,335,14.0,14.0,54,0.00,SCT,,0.00,WeatherDisplay:10.37,2013-02-16 04:39:00,
2013-02-15 22:44:00,25.9,11.5,29.50,NNW,332,14.0,14.0,54,0.00,SCT,,0.00,WeatherDisplay:10.37,2013-02-16 04:44:00,
2013-02-15 22:54:00,25.7,11.7,29.50,NNW,340,13.0,14.0,55,0.00,CLR,,0.00,WeatherDisplay:10.37,2013-02-16 04:54:00,
2013-02-15 23:24:00,25.0,10.2,29.50,NNW,341,14.0,14.0,53,0.00,CLR,,0.00,WeatherDisplay:10.37,2013-02-16 05:24:00,
2013-02-15 23:55:00,24.6,9.5,29.47,NNW,336,15.0,15.0,52,0.00,CLR,,0.00,WeatherDisplay:10.37,2013-02-16 05:55:00,